createdAt,value
2018-08-23T00:01:37.796Z,22.80
2018-08-23T00:04:11.959Z,22.80
2018-08-23T00:06:50.143Z,22.80
2018-08-23T00:09:20.299Z,22.70
2018-08-23T00:11:50.454Z,22.60
2018-08-23T00:14:21.765Z,22.60
2018-08-23T00:16:51.993Z,22.60
2018-08-23T00:19:22.197Z,22.50
2018-08-23T00:21:52.410Z,22.50
2018-08-23T00:24:23.671Z,22.40
2018-08-23T00:26:57.249Z,22.40
2018-08-23T00:29:32.497Z,22.40
2018-08-23T00:32:04.199Z,22.40
2018-08-23T00:34:36.480Z,22.30
2018-08-23T00:37:07.228Z,22.30
2018-08-23T00:39:37.387Z,22.30
2018-08-23T00:42:09.182Z,22.20
2018-08-23T00:45:01.979Z,22.20
2018-08-23T00:47:34.082Z,22.20
2018-08-23T00:50:04.244Z,22.10
2018-08-23T00:52:48.500Z,22.10
2018-08-23T00:58:06.060Z,22.00
2018-08-23T01:00:36.258Z,22.00
2018-08-23T01:03:06.447Z,22.00
2018-08-23T01:05:37.536Z,22.00
2018-08-23T01:08:08.977Z,21.90
2018-08-23T01:10:41.242Z,21.90
2018-08-23T01:13:11.458Z,21.90
2018-08-23T01:15:44.218Z,21.80
2018-08-23T01:18:17.797Z,21.80
2018-08-23T01:20:49.272Z,21.80
2018-08-23T01:23:19.392Z,21.70
2018-08-23T01:25:50.223Z,21.70
2018-08-23T01:28:20.304Z,21.70
2018-08-23T01:30:50.981Z,21.60
2018-08-23T01:33:22.642Z,21.60
2018-08-23T01:35:53.097Z,21.50
2018-08-23T01:38:23.303Z,21.50
2018-08-23T01:40:59.689Z,21.40
2018-08-23T01:43:29.921Z,21.40
2018-08-23T01:46:00.077Z,21.40
2018-08-23T01:48:30.419Z,21.30
2018-08-23T01:51:00.541Z,21.30
2018-08-23T01:53:35.791Z,21.30
2018-08-23T01:56:06.319Z,21.30
2018-08-23T01:58:36.558Z,21.20
2018-08-23T02:01:17.099Z,21.20
2018-08-23T02:03:47.369Z,21.10
2018-08-23T02:06:17.621Z,21.20
2018-08-23T02:08:48.221Z,21.10
2018-08-23T02:11:18.308Z,21.10
2018-08-23T02:13:50.543Z,21.00
2018-08-23T02:16:20.668Z,21.00
2018-08-23T02:18:51.063Z,21.00
2018-08-23T02:21:21.202Z,21.00
2018-08-23T02:23:54.057Z,20.90
2018-08-23T02:26:24.203Z,20.90
2018-08-23T02:28:54.439Z,20.90
2018-08-23T02:31:24.560Z,20.80
2018-08-23T02:33:54.698Z,20.80
2018-08-23T02:36:25.398Z,20.70
2018-08-23T02:38:59.298Z,20.70
2018-08-23T02:41:29.604Z,20.70
2018-08-23T02:43:59.857Z,20.60
2018-08-23T02:46:32.018Z,20.60
2018-08-23T02:49:02.244Z,20.60
2018-08-23T02:51:43.022Z,20.50
2018-08-23T02:54:14.434Z,20.50
2018-08-23T02:56:49.824Z,20.50
2018-08-23T02:59:19.910Z,20.40
2018-08-23T03:01:50.791Z,20.40
2018-08-23T03:04:25.831Z,20.40
2018-08-23T03:06:58.202Z,20.30
2018-08-23T03:09:31.371Z,20.30
2018-08-23T03:12:17.023Z,20.20
2018-08-23T03:14:47.597Z,20.20
2018-08-23T03:17:22.174Z,20.20
2018-08-23T03:21:07.843Z,20.20
2018-08-23T03:23:38.002Z,20.20
2018-08-23T03:26:08.123Z,20.10
2018-08-23T03:28:38.238Z,20.10
2018-08-23T03:31:13.062Z,20.10
2018-08-23T03:33:43.228Z,20.00
2018-08-23T03:36:13.441Z,20.00
2018-08-23T03:38:43.589Z,20.00
2018-08-23T03:41:13.698Z,20.00
2018-08-23T03:43:43.856Z,19.90
2018-08-23T03:46:13.979Z,19.90
2018-08-23T03:48:45.639Z,19.90
2018-08-23T03:51:15.773Z,19.90
2018-08-23T03:53:50.902Z,19.80
2018-08-23T03:56:21.059Z,19.80
2018-08-23T03:58:51.303Z,19.80
2018-08-23T04:01:21.456Z,19.80
2018-08-23T04:03:51.727Z,19.70
2018-08-23T04:06:33.257Z,19.70
2018-08-23T04:09:03.441Z,19.70
2018-08-23T04:11:33.619Z,19.70
2018-08-23T04:14:03.792Z,19.60
2018-08-23T04:16:34.850Z,19.60
2018-08-23T04:19:05.072Z,19.60
2018-08-23T04:21:35.264Z,19.50
2018-08-23T04:24:05.558Z,19.50
2018-08-23T04:26:35.702Z,19.50
2018-08-23T04:29:05.983Z,19.50
2018-08-23T04:31:36.175Z,19.40
2018-08-23T04:34:07.879Z,19.40
2018-08-23T04:36:40.863Z,19.40
2018-08-23T04:39:12.502Z,19.30
2018-08-23T04:41:43.338Z,19.30
2018-08-23T04:44:16.493Z,19.30
2018-08-23T04:46:46.679Z,19.30
2018-08-23T04:49:16.882Z,19.20
2018-08-23T04:51:47.008Z,19.20
2018-08-23T04:54:17.115Z,19.20
2018-08-23T04:56:47.224Z,19.20
2018-08-23T04:59:17.322Z,19.20
2018-08-23T05:01:47.485Z,19.20
2018-08-23T05:04:17.537Z,19.10
2018-08-23T05:06:47.752Z,19.10
2018-08-23T05:09:17.897Z,19.10
2018-08-23T05:11:48.098Z,19.10
2018-08-23T05:14:18.245Z,19.00
2018-08-23T05:16:48.440Z,19.00
2018-08-23T05:19:18.538Z,19.00
2018-08-23T05:21:48.684Z,18.90
2018-08-23T05:24:18.963Z,18.90
2018-08-23T05:26:49.104Z,18.90
2018-08-23T05:29:19.283Z,18.90
2018-08-23T05:31:49.337Z,18.90
2018-08-23T05:34:19.562Z,18.90
2018-08-23T05:36:49.710Z,18.90
2018-08-23T05:39:22.146Z,18.90
2018-08-23T05:41:53.261Z,18.90
2018-08-23T05:44:23.423Z,18.90
2018-08-23T05:46:57.502Z,18.90
2018-08-23T05:49:28.275Z,19.00
2018-08-23T05:51:59.964Z,19.00
2018-08-23T05:54:30.069Z,19.00
2018-08-23T05:57:00.265Z,19.10
2018-08-23T05:59:30.348Z,19.10
2018-08-23T06:02:00.482Z,19.20
2018-08-23T06:04:42.651Z,19.20
2018-08-23T06:07:12.782Z,19.30
2018-08-23T06:09:43.665Z,19.30
2018-08-23T06:12:13.778Z,19.40
2018-08-23T06:14:43.985Z,19.50
2018-08-23T06:17:14.085Z,19.50
2018-08-23T06:19:44.236Z,19.50
2018-08-23T06:22:14.442Z,19.60
2018-08-23T06:24:44.635Z,19.70
2018-08-23T06:27:14.865Z,19.80
2018-08-23T06:29:45.073Z,19.90
2018-08-23T06:32:16.446Z,19.90
2018-08-23T06:34:50.894Z,20.00
2018-08-23T06:37:22.604Z,20.10
2018-08-23T06:39:52.786Z,20.10
2018-08-23T06:42:37.435Z,20.20
2018-08-23T06:45:07.883Z,20.30
2018-08-23T06:47:42.712Z,20.30
2018-08-23T06:50:12.989Z,20.40
2018-08-23T06:52:48.416Z,20.40
2018-08-23T06:55:36.359Z,20.40
2018-08-23T06:58:06.733Z,20.50
2018-08-23T07:00:37.008Z,20.60
2018-08-23T07:03:07.285Z,20.60
2018-08-23T07:05:37.592Z,20.70
2018-08-23T07:08:08.284Z,20.80
2018-08-23T07:10:38.596Z,20.90
2018-08-23T07:13:09.025Z,21.10
2018-08-23T07:15:41.462Z,21.20
2018-08-23T07:18:16.252Z,21.30
2018-08-23T07:20:46.462Z,21.40
2018-08-23T07:23:31.084Z,21.60
2018-08-23T07:26:01.295Z,21.70
2018-08-23T07:28:32.015Z,21.90
2018-08-23T07:31:02.200Z,22.10
2018-08-23T07:33:34.875Z,22.20
2018-08-23T07:36:21.633Z,22.40
2018-08-23T07:38:51.854Z,22.60
2018-08-23T07:41:22.258Z,22.80
2018-08-23T07:43:52.492Z,23.00
2018-08-23T07:46:22.842Z,23.10
2018-08-23T07:48:52.942Z,23.20
2018-08-23T07:51:25.063Z,23.40
2018-08-23T07:53:58.667Z,23.50
2018-08-23T07:56:29.387Z,23.60
2018-08-23T07:58:59.506Z,23.70
2018-08-23T08:01:32.935Z,23.80
2018-08-23T08:04:03.258Z,24.00
2018-08-23T08:06:33.695Z,24.00
2018-08-23T08:09:04.661Z,24.20
2018-08-23T08:12:01.820Z,24.30
2018-08-23T08:14:38.004Z,24.40
2018-08-23T08:17:18.833Z,24.50
2018-08-23T08:19:56.799Z,24.70
2018-08-23T08:22:27.277Z,24.80
2018-08-23T08:25:16.745Z,24.90
2018-08-23T08:27:47.339Z,25.00
2018-08-23T08:30:21.536Z,25.10
2018-08-23T08:32:51.682Z,25.20
2018-08-23T08:35:21.891Z,25.30
2018-08-23T08:37:52.238Z,25.40
2018-08-23T08:40:23.849Z,25.50
2018-08-23T08:42:54.080Z,25.60
2018-08-23T08:45:27.979Z,25.70
2018-08-23T08:48:32.022Z,25.70
2018-08-23T08:51:21.692Z,25.80
2018-08-23T08:53:52.435Z,25.90
2018-08-23T08:56:33.121Z,25.90
2018-08-23T08:59:04.196Z,26.00
2018-08-23T09:01:34.458Z,26.00
2018-08-23T09:04:04.983Z,26.10
2018-08-23T09:06:50.736Z,26.10
2018-08-23T09:09:33.205Z,26.20
2018-08-23T09:12:07.939Z,26.30
2018-08-23T09:14:39.085Z,26.40
2018-08-23T09:17:30.594Z,26.40
2018-08-23T09:20:08.400Z,26.50
2018-08-23T09:22:53.793Z,26.60
2018-08-23T09:25:28.963Z,26.60
2018-08-23T09:27:59.161Z,26.70
2018-08-23T09:30:31.762Z,26.70
2018-08-23T09:33:06.887Z,26.80
2018-08-23T09:35:37.322Z,26.80
2018-08-23T09:38:13.668Z,26.80
2018-08-23T09:40:43.924Z,26.90
2018-08-23T09:43:14.199Z,26.90
2018-08-23T09:45:44.399Z,27.00
2018-08-23T09:48:14.719Z,27.00
2018-08-23T09:50:44.883Z,27.10
2018-08-23T09:53:19.923Z,27.10
2018-08-23T09:55:51.619Z,27.20
2018-08-23T09:58:27.944Z,27.30
2018-08-23T10:01:03.028Z,27.40
2018-08-23T10:03:38.135Z,27.40
2018-08-23T10:06:13.489Z,27.40
2018-08-23T10:08:48.808Z,27.50
2018-08-23T10:11:24.086Z,27.50
2018-08-23T10:13:59.337Z,27.50
2018-08-23T10:16:34.669Z,27.50
2018-08-23T10:19:09.837Z,27.60
2018-08-23T10:21:44.936Z,27.70
2018-08-23T10:24:20.309Z,27.70
2018-08-23T10:26:50.429Z,27.80
2018-08-23T10:29:20.544Z,27.90
2018-08-23T10:31:50.714Z,28.00
2018-08-23T10:34:20.873Z,28.00
2018-08-23T10:36:51.003Z,28.10
2018-08-23T10:39:21.157Z,28.10
2018-08-23T10:41:51.338Z,28.20
2018-08-23T10:44:21.641Z,28.20
2018-08-23T10:46:57.584Z,28.30
2018-08-23T10:49:27.901Z,28.30
2018-08-23T10:51:58.053Z,28.40
2018-08-23T10:54:28.234Z,28.50
2018-08-23T10:56:58.404Z,28.50
2018-08-23T10:59:28.628Z,28.60
2018-08-23T11:01:58.734Z,28.60
2018-08-23T11:04:29.048Z,28.60
2018-08-23T11:06:59.477Z,28.70
2018-08-23T11:09:34.730Z,28.70
2018-08-23T11:12:04.961Z,28.70
2018-08-23T11:14:41.063Z,28.70
2018-08-23T11:17:16.281Z,28.70
2018-08-23T11:19:51.446Z,28.70
2018-08-23T11:22:25.645Z,28.70
2018-08-23T11:24:55.824Z,28.60
2018-08-23T11:27:26.068Z,28.60
2018-08-23T11:29:56.500Z,28.60
2018-08-23T11:32:26.630Z,28.60
2018-08-23T11:34:56.864Z,28.70
2018-08-23T11:37:26.999Z,28.70
2018-08-23T11:39:57.349Z,28.80
2018-08-23T11:42:27.515Z,28.90
2018-08-23T11:44:57.802Z,29.00
2018-08-23T11:47:27.944Z,29.10
2018-08-23T11:49:58.162Z,29.10
2018-08-23T11:52:28.291Z,29.20
2018-08-23T11:54:58.560Z,29.20
2018-08-23T11:57:28.858Z,29.20
2018-08-23T11:59:59.085Z,29.20
2018-08-23T12:02:29.362Z,29.20
2018-08-23T12:04:59.678Z,29.20
2018-08-23T12:07:30.099Z,29.10
2018-08-23T12:10:00.394Z,29.10
2018-08-23T12:12:30.501Z,29.20
2018-08-23T12:15:03.260Z,29.10
2018-08-23T12:17:33.424Z,29.20
2018-08-23T12:20:03.655Z,29.20
2018-08-23T12:22:38.905Z,29.20
2018-08-23T12:25:09.075Z,29.30
2018-08-23T12:27:40.060Z,29.30
2018-08-23T12:30:10.399Z,29.40
2018-08-23T12:32:40.625Z,29.40
2018-08-23T12:35:10.838Z,29.40
2018-08-23T12:37:46.095Z,29.50
2018-08-23T12:40:21.339Z,29.60
2018-08-23T12:42:52.911Z,29.60
2018-08-23T12:45:23.084Z,29.60
2018-08-23T12:47:53.284Z,29.60
2018-08-23T12:50:23.447Z,29.70
2018-08-23T12:52:53.837Z,29.70
2018-08-23T12:55:24.108Z,29.70
2018-08-23T12:57:54.334Z,29.70
2018-08-23T13:00:24.525Z,29.70
2018-08-23T13:02:54.854Z,29.70
2018-08-23T13:05:25.089Z,29.70
2018-08-23T13:07:55.255Z,29.80
2018-08-23T13:10:25.465Z,29.80
2018-08-23T13:12:55.661Z,29.90
2018-08-23T13:15:25.797Z,29.90
2018-08-23T13:17:55.973Z,29.90
2018-08-23T13:20:26.204Z,29.90
2018-08-23T13:22:56.432Z,30.00
2018-08-23T13:25:29.302Z,30.00
2018-08-23T13:27:59.511Z,30.10
2018-08-23T13:30:29.761Z,30.10
2018-08-23T13:33:00.048Z,30.10
2018-08-23T13:35:30.356Z,30.20
2018-08-23T13:38:00.543Z,30.10
2018-08-23T13:40:30.784Z,30.20
2018-08-23T13:43:01.024Z,30.20
2018-08-23T13:45:31.263Z,30.20
2018-08-23T13:48:01.480Z,30.30
2018-08-23T13:50:31.643Z,30.30
2018-08-23T13:53:01.860Z,30.30
2018-08-23T13:55:32.010Z,30.30
2018-08-23T13:58:02.152Z,30.30
2018-08-23T14:00:37.256Z,30.30
2018-08-23T14:03:08.322Z,30.40
2018-08-23T14:05:39.649Z,30.40
2018-08-23T14:08:10.377Z,30.50
2018-08-23T14:10:40.617Z,30.50
2018-08-23T14:13:10.842Z,30.50
2018-08-23T14:15:46.115Z,30.50
2018-08-23T14:18:16.327Z,30.50
2018-08-23T14:20:46.536Z,30.50
2018-08-23T14:23:16.777Z,30.50
2018-08-23T14:25:46.870Z,30.50
2018-08-23T14:28:17.022Z,30.60
2018-08-23T14:30:47.227Z,30.60
2018-08-23T14:33:17.403Z,30.60
2018-08-23T14:35:47.605Z,30.50
2018-08-23T14:38:17.830Z,30.60
2018-08-23T14:40:48.152Z,30.60
2018-08-23T14:43:18.345Z,30.70
2018-08-23T14:45:48.562Z,30.70
2018-08-23T14:48:20.128Z,30.70
2018-08-23T14:50:54.346Z,30.70
2018-08-23T14:53:26.449Z,30.70
2018-08-23T14:56:01.636Z,30.70
2018-08-23T14:58:32.127Z,30.70
2018-08-23T15:01:02.429Z,30.80
2018-08-23T15:03:32.623Z,30.80
2018-08-23T15:06:02.952Z,30.80
2018-08-23T15:08:33.165Z,30.80
2018-08-23T15:11:03.380Z,30.80
2018-08-23T15:13:33.514Z,30.80
2018-08-23T15:16:03.779Z,30.80
2018-08-23T15:18:33.986Z,30.70
2018-08-23T15:21:04.146Z,30.60
2018-08-23T15:23:34.371Z,30.50
2018-08-23T15:26:04.588Z,30.50
2018-08-23T15:28:34.722Z,30.40
2018-08-23T15:31:04.868Z,30.30
2018-08-23T15:33:35.062Z,30.30
2018-08-23T15:36:05.222Z,30.30
2018-08-23T15:38:35.468Z,30.30
2018-08-23T15:41:05.843Z,30.30
2018-08-23T15:43:35.956Z,30.30
2018-08-23T15:46:06.241Z,30.30
2018-08-23T15:48:36.581Z,30.30
2018-08-23T15:51:06.917Z,30.30
2018-08-23T15:53:41.894Z,30.30
2018-08-23T15:56:12.233Z,30.30
2018-08-23T15:58:42.478Z,30.30
2018-08-23T16:01:12.679Z,30.30
2018-08-23T16:03:43.014Z,30.30
2018-08-23T16:06:13.304Z,30.30
2018-08-23T16:08:48.578Z,30.40
2018-08-23T16:11:19.162Z,30.40
2018-08-23T16:13:49.450Z,30.40
2018-08-23T16:16:24.713Z,30.40
2018-08-23T16:18:59.978Z,30.40
2018-08-23T16:21:35.151Z,30.30
2018-08-23T16:24:05.484Z,30.30
2018-08-23T16:26:40.852Z,30.20
2018-08-23T16:29:11.171Z,30.20
2018-08-23T16:31:41.389Z,30.20
2018-08-23T16:34:11.681Z,30.10
2018-08-23T16:36:42.036Z,30.10
2018-08-23T16:39:12.198Z,30.10
2018-08-23T16:41:42.389Z,30.00
2018-08-23T16:44:12.703Z,29.90
2018-08-23T16:46:42.959Z,29.80
2018-08-23T16:49:13.165Z,29.80
2018-08-23T16:51:43.425Z,29.70
2018-08-23T16:54:13.662Z,29.60
2018-08-23T16:56:43.891Z,29.60
2018-08-23T16:59:14.235Z,29.50
2018-08-23T17:01:44.401Z,29.50
2018-08-23T17:04:14.665Z,29.50
2018-08-23T17:06:46.104Z,29.50
2018-08-23T17:09:26.733Z,29.40
2018-08-23T17:11:57.197Z,29.30
2018-08-23T17:14:27.408Z,29.30
2018-08-23T17:17:02.677Z,29.20
2018-08-23T17:19:32.966Z,29.20
2018-08-23T17:22:03.258Z,29.10
2018-08-23T17:24:33.635Z,29.00
2018-08-23T17:27:03.878Z,29.00
2018-08-23T17:29:34.059Z,29.00
2018-08-23T17:32:04.276Z,28.90
2018-08-23T17:34:34.404Z,28.80
2018-08-23T17:37:04.579Z,28.70
2018-08-23T17:39:34.790Z,28.70
2018-08-23T17:42:05.068Z,28.70
2018-08-23T17:44:37.399Z,28.60
2018-08-23T17:47:07.792Z,28.50
2018-08-23T17:49:37.995Z,28.50
2018-08-23T17:52:08.324Z,28.40
2018-08-23T17:54:38.508Z,28.30
2018-08-23T17:57:08.790Z,28.20
2018-08-23T17:59:39.002Z,28.10
2018-08-23T18:02:09.525Z,28.10
2018-08-23T18:04:39.704Z,28.00
2018-08-23T18:07:09.855Z,27.90
2018-08-23T18:09:40.061Z,27.80
2018-08-23T18:12:10.560Z,27.80
2018-08-23T18:14:40.703Z,27.70
2018-08-23T18:17:10.878Z,27.60
2018-08-23T18:19:41.121Z,27.50
2018-08-23T18:22:11.395Z,27.50
2018-08-23T18:24:41.854Z,27.40
2018-08-23T18:27:12.009Z,27.30
2018-08-23T18:29:42.325Z,27.20
2018-08-23T18:32:12.483Z,27.20
2018-08-23T18:34:42.759Z,27.10
2018-08-23T18:37:13.063Z,27.00
2018-08-23T18:39:43.275Z,27.00
2018-08-23T18:42:13.498Z,26.90
2018-08-23T18:44:43.705Z,26.90
2018-08-23T18:47:14.168Z,26.80
2018-08-23T18:49:44.458Z,26.80
2018-08-23T18:52:14.658Z,26.70
2018-08-23T18:54:44.863Z,26.70
2018-08-23T18:57:15.025Z,26.60
2018-08-23T18:59:45.233Z,26.60
2018-08-23T19:02:15.385Z,26.50
2018-08-23T19:04:45.787Z,26.50
2018-08-23T19:07:21.159Z,26.40
2018-08-23T19:09:55.503Z,26.30
2018-08-23T19:12:25.657Z,26.20
2018-08-23T19:14:56.122Z,26.20
2018-08-23T19:17:44.545Z,26.10
2018-08-23T19:20:14.622Z,26.00
2018-08-23T19:22:44.831Z,25.90
2018-08-23T19:25:15.135Z,25.90
2018-08-23T19:27:45.351Z,25.80
2018-08-23T19:30:15.584Z,25.80
2018-08-23T19:32:45.747Z,25.70
2018-08-23T19:35:15.840Z,25.70
2018-08-23T19:37:46.093Z,25.60
2018-08-23T19:40:16.216Z,25.60
2018-08-23T19:42:46.425Z,25.50
2018-08-23T19:45:16.587Z,25.40
2018-08-23T19:47:51.878Z,25.30
2018-08-23T19:50:22.191Z,25.30
2018-08-23T19:52:52.339Z,25.20
2018-08-23T19:55:22.599Z,25.10
2018-08-23T19:57:52.707Z,25.00
2018-08-23T20:00:22.873Z,25.00
2018-08-23T20:02:53.062Z,24.90
2018-08-23T20:05:23.268Z,24.90
2018-08-23T20:07:53.417Z,24.80
2018-08-23T20:10:23.659Z,24.80
2018-08-23T20:12:53.783Z,24.70
2018-08-23T20:15:24.961Z,24.60
2018-08-23T20:17:56.753Z,24.50
2018-08-23T20:20:26.943Z,24.40
2018-08-23T20:22:57.186Z,24.40
2018-08-23T20:25:27.424Z,24.40
2018-08-23T20:27:57.580Z,24.30
2018-08-23T20:30:28.350Z,24.30
2018-08-23T20:32:59.459Z,24.30
2018-08-23T20:35:29.783Z,24.30
2018-08-23T20:37:59.960Z,24.20
2018-08-23T20:40:30.100Z,24.20
2018-08-23T20:43:00.448Z,24.10
2018-08-23T20:45:30.675Z,24.10
2018-08-23T20:48:00.884Z,24.10
2018-08-23T20:50:31.045Z,24.00
2018-08-23T20:53:01.501Z,24.00
2018-08-23T20:55:31.644Z,24.00
2018-08-23T20:58:02.219Z,23.90
2018-08-23T21:00:32.388Z,23.90
2018-08-23T21:03:02.904Z,23.80
2018-08-23T21:05:33.067Z,23.80
2018-08-23T21:08:03.509Z,23.70
2018-08-23T21:10:33.710Z,23.70
2018-08-23T21:13:03.859Z,23.70
2018-08-23T21:15:37.624Z,23.60
2018-08-23T21:18:10.890Z,23.60
2018-08-23T21:20:42.673Z,23.50
2018-08-23T21:23:12.818Z,23.50
2018-08-23T21:25:42.981Z,23.40
2018-08-23T21:28:13.124Z,23.40
2018-08-23T21:30:43.288Z,23.40
2018-08-23T21:33:13.520Z,23.40
2018-08-23T21:35:43.673Z,23.30
2018-08-23T21:38:13.813Z,23.30
2018-08-23T21:40:44.018Z,23.30
2018-08-23T21:43:14.304Z,23.30
2018-08-23T21:45:44.565Z,23.20
2018-08-23T21:48:14.831Z,23.20
2018-08-23T21:50:45.028Z,23.10
2018-08-23T21:53:15.798Z,23.10
2018-08-23T21:55:45.880Z,23.10
2018-08-23T21:58:16.118Z,23.00
2018-08-23T22:00:51.308Z,23.00
2018-08-23T22:03:21.571Z,23.00
2018-08-23T22:05:51.831Z,22.90
2018-08-23T22:08:21.918Z,22.80
2018-08-23T22:10:52.071Z,22.80
2018-08-23T22:13:22.218Z,22.70
2018-08-23T22:15:52.478Z,22.70
2018-08-23T22:18:22.678Z,22.70
2018-08-23T22:20:53.372Z,22.60
2018-08-23T22:23:23.522Z,22.60
2018-08-23T22:25:53.617Z,22.60
2018-08-23T22:28:23.817Z,22.50
2018-08-23T22:30:53.983Z,22.50
2018-08-23T22:33:24.122Z,22.50
2018-08-23T22:35:54.294Z,22.40
2018-08-23T22:38:24.441Z,22.30
2018-08-23T22:40:54.677Z,22.30
2018-08-23T22:43:24.890Z,22.30
2018-08-23T22:45:55.061Z,22.30
2018-08-23T22:48:25.125Z,22.20
2018-08-23T22:50:55.298Z,22.20
2018-08-23T22:53:25.428Z,22.20
2018-08-23T22:55:55.655Z,22.20
2018-08-23T22:58:25.878Z,22.20
2018-08-23T23:00:55.983Z,22.20
2018-08-23T23:03:31.447Z,22.20
2018-08-23T23:06:01.642Z,22.10
2018-08-23T23:08:31.859Z,22.10
2018-08-23T23:11:02.017Z,22.20
2018-08-23T23:13:32.182Z,22.20
2018-08-23T23:16:02.419Z,22.10
2018-08-23T23:18:32.523Z,22.10
2018-08-23T23:21:02.767Z,22.10
2018-08-23T23:23:32.947Z,22.10
2018-08-23T23:26:03.184Z,22.10
2018-08-23T23:28:33.283Z,22.10
2018-08-23T23:31:03.484Z,22.10
2018-08-23T23:33:33.597Z,22.10
2018-08-23T23:36:03.783Z,22.10
2018-08-23T23:38:33.976Z,22.10
2018-08-23T23:41:04.157Z,22.10
2018-08-23T23:43:34.329Z,22.00
2018-08-23T23:46:04.560Z,22.00
2018-08-23T23:48:34.883Z,21.90
2018-08-23T23:51:05.721Z,21.80
2018-08-23T23:53:36.034Z,21.80
2018-08-23T23:56:06.281Z,21.60
2018-08-23T23:58:36.438Z,21.60
